Time;durP1;ratioP1;P1;durP2;ratioP2;P2;SDS_P1;SDS_P2;PMS_P1;PMS_P2;Temp;Humidity;BMP_temperature;BMP_pressure;BME280_temperature;BME280_humidity;BME280_pressure;Samples;Min_cycle;Max_cycle;Signal;HPM_P1;HPM_P2
2023/01/03 00:01:44;;;;;;;3.45;1.30;;;;;;;;;;4976344;28;20027;-70
2023/01/03 00:04:10;;;;;;;3.28;1.73;;;;;;;;;;4974947;28;20023;-70
2023/01/03 00:06:39;;;;;;;4.03;1.70;;;;;;;;;;4974864;28;20487;-71
2023/01/03 00:09:08;;;;;;;4.00;2.05;;;;;;;;;;4975721;28;20089;-70
2023/01/03 00:14:30;;;;;;;3.05;1.52;;;;;;;;;;4981018;28;20041;-70
2023/01/03 00:16:58;;;;;;;3.92;1.35;;;;;;;;;;4989186;28;20048;-70
2023/01/03 00:19:25;;;;;;;6.85;1.92;;;;;;;;;;5010026;28;20022;-70
2023/01/03 00:21:51;;;;;;;6.65;1.73;;;;;;;;;;5014774;28;20038;-71
2023/01/03 00:24:17;;;;;;;3.97;1.40;;;;;;;;;;5014537;28;20034;-71
2023/01/03 00:26:42;;;;;;;4.20;1.58;;;;;;;;;;5014769;28;20025;-71
2023/01/03 00:29:09;;;;;;;1.83;1.05;;;;;;;;;;5014313;28;20025;-70
2023/01/03 00:31:35;;;;;;;4.88;1.10;;;;;;;;;;5014600;28;20033;-70
2023/01/03 00:34:01;;;;;;;4.93;1.75;;;;;;;;;;5008470;28;20120;-71
2023/01/03 00:36:26;;;;;;;2.83;1.33;;;;;;;;;;4989705;28;20178;-70
2023/01/03 00:38:52;;;;;;;5.18;1.38;;;;;;;;;;4990079;28;20081;-70
2023/01/03 00:41:18;;;;;;;4.47;1.30;;;;;;;;;;4986051;28;20517;-70
2023/01/03 00:43:45;;;;;;;7.00;1.90;;;;;;;;;;4985146;28;20051;-69
2023/01/03 00:46:12;;;;;;;4.78;1.55;;;;;;;;;;4986496;28;20573;-70
2023/01/03 00:48:38;;;;;;;3.95;1.52;;;;;;;;;;4987320;28;20030;-70
2023/01/03 00:51:10;;;;;;;3.65;1.73;;;;;;;;;;4985365;28;20073;-70
2023/01/03 00:53:37;;;;;;;4.78;1.55;;;;;;;;;;4984424;28;20349;-70
2023/01/03 00:56:08;;;;;;;5.53;1.80;;;;;;;;;;4983832;28;20361;-70
2023/01/03 00:58:34;;;;;;;5.85;1.75;;;;;;;;;;4982303;28;20463;-70
2023/01/03 01:01:08;;;;;;;5.47;1.98;;;;;;;;;;5006543;28;20026;-70
2023/01/03 01:03:34;;;;;;;5.35;2.47;;;;;;;;;;5004832;28;20052;-70
2023/01/03 01:06:08;;;;;;;7.40;2.70;;;;;;;;;;4998370;28;20587;-70
2023/01/03 01:08:34;;;;;;;6.22;1.95;;;;;;;;;;4987916;28;20126;-70
2023/01/03 01:11:02;;;;;;;3.47;1.80;;;;;;;;;;4986707;28;20092;-71
2023/01/03 01:13:32;;;;;;;6.35;2.30;;;;;;;;;;4988959;28;20018;-70
2023/01/03 01:16:06;;;;;;;7.55;2.83;;;;;;;;;;4987457;28;20081;-70
2023/01/03 01:18:32;;;;;;;8.93;2.17;;;;;;;;;;4986968;28;20488;-70
2023/01/03 01:20:58;;;;;;;7.85;2.78;;;;;;;;;;4985367;28;20031;-70
2023/01/03 01:23:23;;;;;;;9.40;2.45;;;;;;;;;;4987518;28;20033;-70
2023/01/03 01:25:49;;;;;;;4.60;1.88;;;;;;;;;;4986457;28;20023;-70
2023/01/03 01:28:14;;;;;;;6.40;2.10;;;;;;;;;;4988020;28;20129;-68
2023/01/03 01:30:39;;;;;;;7.43;2.42;;;;;;;;;;4987949;28;20023;-70
2023/01/03 01:33:05;;;;;;;3.83;2.22;;;;;;;;;;4985936;28;20415;-69
2023/01/03 01:35:31;;;;;;;4.28;1.83;;;;;;;;;;4986242;28;20026;-69
2023/01/03 01:37:57;;;;;;;9.10;2.40;;;;;;;;;;5006492;28;20026;-69
2023/01/03 01:40:22;;;;;;;4.55;2.15;;;;;;;;;;5013345;28;20033;-70
2023/01/03 01:45:34;;;;;;;4.95;1.70;;;;;;;;;;4994289;28;20038;-70
2023/01/03 01:48:04;;;;;;;5.82;2.90;;;;;;;;;;4993755;28;20030;-70
2023/01/03 01:51:05;;;;;;;12.20;4.07;;;;;;;;;;5003941;28;20030;-70
2023/01/03 01:53:33;;;;;;;3.78;1.95;;;;;;;;;;4972066;28;20074;-69
2023/01/03 01:56:08;;;;;;;5.65;2.30;;;;;;;;;;4960030;28;20148;-70
2023/01/03 01:58:38;;;;;;;5.68;2.25;;;;;;;;;;4952788;29;20100;-70
2023/01/03 02:01:06;;;;;;;8.43;2.20;;;;;;;;;;4952710;29;20050;-71
2023/01/03 02:03:32;;;;;;;5.15;2.30;;;;;;;;;;4952760;29;20126;-70
2023/01/03 02:06:00;;;;;;;6.13;2.22;;;;;;;;;;4957452;28;20117;-70
2023/01/03 02:08:26;;;;;;;8.70;2.17;;;;;;;;;;4971903;28;20062;-70
2023/01/03 02:11:00;;;;;;;6.75;2.20;;;;;;;;;;4971850;28;20396;-71
2023/01/03 02:13:51;;;;;;;7.63;2.15;;;;;;;;;;4952199;29;20031;-71
2023/01/03 02:16:16;;;;;;;;;;;;;;;;;;4960788;28;20062;-71
2023/01/03 02:18:59;;;;;;;7.18;2.42;;;;;;;;;;4953705;28;19914;-71
2023/01/03 02:21:33;;;;;;;5.95;2.15;;;;;;;;;;4961228;28;20026;-71
2023/01/03 02:24:06;;;;;;;6.55;2.65;;;;;;;;;;4971778;28;20460;-71
2023/01/03 02:26:37;;;;;;;6.85;2.40;;;;;;;;;;4968387;28;20031;-72
2023/01/03 02:29:11;;;;;;;5.60;2.00;;;;;;;;;;4982578;28;20041;-71
2023/01/03 02:31:55;;;;;;;8.20;2.47;;;;;;;;;;5015626;28;20148;-71
2023/01/03 02:34:46;;;;;;;7.45;2.60;;;;;;;;;;5015313;28;20399;-70
2023/01/03 02:37:27;;;;;;;9.85;3.10;;;;;;;;;;4961581;28;20044;-70
2023/01/03 02:40:19;;;;;;;16.38;4.35;;;;;;;;;;4956238;29;20477;-71
2023/01/03 02:43:05;;;;;;;13.48;4.22;;;;;;;;;;4956147;29;20051;-71
2023/01/03 02:45:45;;;;;;;15.93;4.38;;;;;;;;;;4956121;29;20033;-71
2023/01/03 02:48:32;;;;;;;16.40;6.70;;;;;;;;;;4956004;29;20519;-71
2023/01/03 02:51:01;;;;;;;16.55;6.97;;;;;;;;;;4956130;29;20106;-71
2023/01/03 02:53:38;;;;;;;6.00;2.63;;;;;;;;;;4973274;28;20035;-70
2023/01/03 02:56:08;;;;;;;5.25;2.00;;;;;;;;;;4975324;28;20062;-70
2023/01/03 02:58:36;;;;;;;4.32;2.25;;;;;;;;;;4959230;28;20058;-69
2023/01/03 03:01:05;;;;;;;5.65;2.55;;;;;;;;;;4955895;29;20039;-70
2023/01/03 03:03:35;;;;;;;5.13;2.10;;;;;;;;;;4969726;28;20069;-70
2023/01/03 03:06:06;;;;;;;8.00;2.20;;;;;;;;;;4974962;28;20039;-71
2023/01/03 03:08:32;;;;;;;7.05;2.30;;;;;;;;;;4959947;28;20453;-70
2023/01/03 03:13:59;;;;;;;6.25;2.20;;;;;;;;;;4963646;28;20101;-69
2023/01/03 03:16:47;;;;;;;4.53;2.00;;;;;;;;;;4977102;28;20031;-70
2023/01/03 03:25:28;;;;;;;4.13;1.70;;;;;;;;;;5007665;28;20107;-69
2023/01/03 03:30:54;;;;;;;9.70;2.20;;;;;;;;;;4992270;28;20383;-70
2023/01/03 03:33:23;;;;;;;4.25;2.03;;;;;;;;;;5015650;28;20026;-70
2023/01/03 03:35:56;;;;;;;9.82;2.28;;;;;;;;;;5001761;28;20384;-69
2023/01/03 03:38:33;;;;;;;7.50;2.33;;;;;;;;;;4995790;28;20488;-70
2023/01/03 03:46:48;;;;;;;9.55;3.03;;;;;;;;;;5010430;28;20530;-69
2023/01/03 03:49:38;;;;;;;4.40;1.50;;;;;;;;;;4994630;28;20038;-70
2023/01/03 03:52:07;;;;;;;4.30;2.40;;;;;;;;;;4997793;28;20061;-69
2023/01/03 03:54:35;;;;;;;4.78;2.28;;;;;;;;;;5007925;28;20044;-69
2023/01/03 03:57:23;;;;;;;3.75;1.45;;;;;;;;;;5006698;28;20109;-70
2023/01/03 03:59:52;;;;;;;7.25;2.25;;;;;;;;;;4998836;28;20041;-70
2023/01/03 04:02:19;;;;;;;5.13;1.90;;;;;;;;;;5015195;28;20472;-71
2023/01/03 04:04:48;;;;;;;7.20;1.40;;;;;;;;;;5006922;28;20035;-70
2023/01/03 04:07:14;;;;;;;3.72;1.10;;;;;;;;;;4995474;28;20026;-70
2023/01/03 04:09:39;;;;;;;5.35;1.67;;;;;;;;;;4995373;28;20089;-69
2023/01/03 04:12:05;;;;;;;4.78;1.10;;;;;;;;;;5012207;28;20383;-70
2023/01/03 04:14:30;;;;;;;2.88;1.00;;;;;;;;;;5014975;28;20032;-70
2023/01/03 04:16:56;;;;;;;4.13;1.20;;;;;;;;;;5008761;28;20029;-70
2023/01/03 04:19:21;;;;;;;4.97;1.20;;;;;;;;;;4995330;28;20022;-71
2023/01/03 04:21:47;;;;;;;4.40;1.50;;;;;;;;;;4995562;28;20037;-70
2023/01/03 04:24:12;;;;;;;7.25;1.70;;;;;;;;;;5010830;28;20492;-70
2023/01/03 04:26:37;;;;;;;8.23;2.10;;;;;;;;;;5002342;28;20041;-69
2023/01/03 04:29:03;;;;;;;6.82;1.65;;;;;;;;;;5010541;28;20034;-69
2023/01/03 04:31:28;;;;;;;7.65;1.70;;;;;;;;;;5014412;28;20037;-71
2023/01/03 04:33:54;;;;;;;4.13;1.70;;;;;;;;;;5012264;28;20037;-70
2023/01/03 04:36:20;;;;;;;6.75;2.40;;;;;;;;;;4995135;28;20117;-70
2023/01/03 04:38:45;;;;;;;5.80;2.10;;;;;;;;;;4994847;28;20064;-69
2023/01/03 04:41:11;;;;;;;4.95;1.50;;;;;;;;;;5005602;28;20065;-68
2023/01/03 04:46:21;;;;;;;2.80;1.60;;;;;;;;;;5012385;28;20033;-70
2023/01/03 04:48:46;;;;;;;5.30;1.70;;;;;;;;;;4994160;28;20035;-69
2023/01/03 04:51:12;;;;;;;5.68;1.67;;;;;;;;;;5001881;28;20050;-70
2023/01/03 04:53:37;;;;;;;3.75;1.90;;;;;;;;;;5003270;28;20049;-70
2023/01/03 04:56:03;;;;;;;6.40;1.70;;;;;;;;;;5008601;28;20049;-70
2023/01/03 04:58:28;;;;;;;7.45;1.80;;;;;;;;;;4997412;28;20491;-70
2023/01/03 05:01:01;;;;;;;7.03;3.38;;;;;;;;;;5013903;28;20024;-71
2023/01/03 05:03:28;;;;;;;7.38;1.77;;;;;;;;;;4974962;28;20123;-71
2023/01/03 05:06:01;;;;;;;6.05;1.70;;;;;;;;;;4974832;28;20035;-70
2023/01/03 05:08:26;;;;;;;3.38;1.60;;;;;;;;;;4992622;28;20105;-70
2023/01/03 05:10:52;;;;;;;6.70;1.55;;;;;;;;;;4981477;28;20022;-70
2023/01/03 05:13:18;;;;;;;3.80;2.42;;;;;;;;;;5006681;28;20022;-71
2023/01/03 05:15:43;;;;;;;9.85;1.92;;;;;;;;;;5004313;28;20068;-70
2023/01/03 05:18:09;;;;;;;4.65;1.83;;;;;;;;;;5009083;28;20109;-70
2023/01/03 05:26:10;;;;;;;4.35;1.40;;;;;;;;;;5012201;28;20201;-70
2023/01/03 05:28:36;;;;;;;4.30;1.55;;;;;;;;;;5013197;28;20521;-70
2023/01/03 05:31:02;;;;;;;5.07;1.50;;;;;;;;;;5013536;28;20022;-70
2023/01/03 05:33:27;;;;;;;3.53;1.45;;;;;;;;;;5013508;28;20100;-70
2023/01/03 05:35:53;;;;;;;5.05;1.40;;;;;;;;;;5007146;28;20030;-71
2023/01/03 05:38:18;;;;;;;3.90;1.42;;;;;;;;;;5003221;28;20430;-70
2023/01/03 05:40:44;;;;;;;5.30;1.73;;;;;;;;;;4999982;28;20019;-71
2023/01/03 05:43:10;;;;;;;4.45;1.60;;;;;;;;;;5009382;28;20116;-71
2023/01/03 05:45:36;;;;;;;6.68;1.88;;;;;;;;;;4997309;28;20072;-70
2023/01/03 05:48:02;;;;;;;7.47;2.33;;;;;;;;;;5013302;28;20099;-69
2023/01/03 05:50:27;;;;;;;5.35;1.90;;;;;;;;;;5012293;28;20456;-68
2023/01/03 05:52:53;;;;;;;4.65;1.75;;;;;;;;;;4993592;28;20027;-70
2023/01/03 05:55:18;;;;;;;6.88;1.67;;;;;;;;;;4993591;28;20083;-70
2023/01/03 05:57:45;;;;;;;5.35;2.05;;;;;;;;;;5002771;28;20375;-71
2023/01/03 06:00:12;;;;;;;5.55;2.08;;;;;;;;;;5013107;28;20022;-71
2023/01/03 06:02:37;;;;;;;6.40;2.08;;;;;;;;;;5013175;28;20109;-70
2023/01/03 06:05:03;;;;;;;4.80;1.67;;;;;;;;;;4999023;28;20468;-70
2023/01/03 06:07:29;;;;;;;6.30;2.85;;;;;;;;;;4993303;28;20034;-70
2023/01/03 06:09:55;;;;;;;7.85;3.08;;;;;;;;;;5009156;28;20105;-70
2023/01/03 06:12:20;;;;;;;13.98;4.03;;;;;;;;;;4997626;28;20121;-70
2023/01/03 06:14:46;;;;;;;12.68;3.80;;;;;;;;;;5004225;28;20089;-70
2023/01/03 06:19:56;;;;;;;9.90;3.08;;;;;;;;;;5013170;28;20442;-70
2023/01/03 06:22:21;;;;;;;9.52;2.65;;;;;;;;;;4996639;28;20035;-68
2023/01/03 06:24:47;;;;;;;10.68;3.17;;;;;;;;;;4993111;28;20034;-70
2023/01/03 06:27:12;;;;;;;4.88;2.15;;;;;;;;;;4997141;28;20041;-71
2023/01/03 06:29:38;;;;;;;8.55;2.20;;;;;;;;;;5012523;28;20022;-70
2023/01/03 06:32:04;;;;;;;4.18;1.90;;;;;;;;;;5012687;28;20511;-70
2023/01/03 06:34:29;;;;;;;4.35;1.95;;;;;;;;;;5012718;28;20033;-70
2023/01/03 06:36:54;;;;;;;8.70;1.98;;;;;;;;;;5012802;28;20017;-70
2023/01/03 06:39:20;;;;;;;5.78;1.77;;;;;;;;;;4996156;28;20027;-70
2023/01/03 06:41:45;;;;;;;4.97;1.70;;;;;;;;;;5007011;28;20019;-68
2023/01/03 06:44:11;;;;;;;4.22;1.63;;;;;;;;;;5001246;28;20132;-71
2023/01/03 06:54:53;;;;;;;9.95;2.72;;;;;;;;;;4973144;28;20089;-70
2023/01/03 06:57:18;;;;;;;6.55;1.75;;;;;;;;;;4999898;28;20109;-70
2023/01/03 06:59:44;;;;;;;10.60;4.30;;;;;;;;;;5012560;28;20037;-70
2023/01/03 07:02:09;;;;;;;6.53;1.70;;;;;;;;;;5010176;28;20026;-70
2023/01/03 07:04:35;;;;;;;6.53;1.83;;;;;;;;;;4992596;28;20029;-68
2023/01/03 07:07:00;;;;;;;6.25;1.88;;;;;;;;;;4992289;28;20029;-70
2023/01/03 07:09:26;;;;;;;5.90;2.10;;;;;;;;;;5008493;28;20447;-69
2023/01/03 07:11:52;;;;;;;5.22;1.52;;;;;;;;;;4997569;28;20054;-70
2023/01/03 07:14:18;;;;;;;6.03;2.00;;;;;;;;;;5007746;28;20140;-70
2023/01/03 07:16:46;;;;;;;4.47;2.33;;;;;;;;;;5006551;28;20030;-70
2023/01/03 07:19:17;;;;;;;6.10;2.00;;;;;;;;;;5014340;28;20490;-70
2023/01/03 07:21:43;;;;;;;4.38;1.98;;;;;;;;;;4996244;28;20027;-70
2023/01/03 07:24:11;;;;;;;7.35;2.00;;;;;;;;;;4996156;28;20365;-70
2023/01/03 07:26:37;;;;;;;5.20;2.08;;;;;;;;;;5010591;28;20486;-70
2023/01/03 07:29:06;;;;;;;7.22;2.15;;;;;;;;;;5015571;28;20029;-70
2023/01/03 07:31:31;;;;;;;3.88;1.70;;;;;;;;;;5015627;28;20092;-70
2023/01/03 07:33:57;;;;;;;5.97;1.70;;;;;;;;;;5015580;28;20109;-69
2023/01/03 07:36:23;;;;;;;4.20;1.60;;;;;;;;;;5013458;28;20046;-70
2023/01/03 07:38:48;;;;;;;7.78;2.42;;;;;;;;;;5001120;28;20025;-71
2023/01/03 07:41:15;;;;;;;8.18;3.60;;;;;;;;;;5006371;28;20031;-70
2023/01/03 07:43:43;;;;;;;12.35;4.85;;;;;;;;;;5008360;28;20133;-70
2023/01/03 07:46:17;;;;;;;7.80;3.10;;;;;;;;;;4998795;28;20318;-70
2023/01/03 07:48:43;;;;;;;11.07;3.38;;;;;;;;;;5001460;28;20436;-70
2023/01/03 07:51:11;;;;;;;7.63;2.75;;;;;;;;;;5015362;28;20099;-71
2023/01/03 07:53:37;;;;;;;9.93;2.28;;;;;;;;;;4999650;28;20049;-71
2023/01/03 07:56:22;;;;;;;7.40;2.53;;;;;;;;;;5011783;28;20026;-71
2023/01/03 07:58:50;;;;;;;6.75;2.13;;;;;;;;;;5004278;28;20034;-70
2023/01/03 08:01:18;;;;;;;3.80;1.70;;;;;;;;;;5002721;28;20025;-70
2023/01/03 08:03:44;;;;;;;10.50;2.00;;;;;;;;;;4995629;28;20034;-70
2023/01/03 08:06:15;;;;;;;5.70;1.70;;;;;;;;;;5008496;28;20038;-70
2023/01/03 08:08:41;;;;;;;2.97;1.63;;;;;;;;;;5009146;28;20420;-70
2023/01/03 08:13:54;;;;;;;9.32;1.92;;;;;;;;;;4999653;28;20036;-70
2023/01/03 08:16:19;;;;;;;8.02;2.28;;;;;;;;;;5011252;28;20030;-70
2023/01/03 08:18:45;;;;;;;6.60;2.15;;;;;;;;;;4995157;28;20376;-70
2023/01/03 08:21:13;;;;;;;5.80;1.60;;;;;;;;;;4999388;28;20022;-70
2023/01/03 08:23:39;;;;;;;8.05;2.00;;;;;;;;;;5005375;28;20109;-70
2023/01/03 08:26:14;;;;;;;4.35;1.88;;;;;;;;;;5006347;28;20033;-68
2023/01/03 08:28:42;;;;;;;5.95;2.10;;;;;;;;;;5001423;28;20078;-69
2023/01/03 08:31:14;;;;;;;5.78;1.98;;;;;;;;;;5014440;28;20076;-67
2023/01/03 08:33:48;;;;;;;6.63;2.30;;;;;;;;;;4999070;28;20037;-68
2023/01/03 08:36:14;;;;;;;10.05;2.38;;;;;;;;;;4994926;28;20042;-67
2023/01/03 08:38:47;;;;;;;7.38;2.60;;;;;;;;;;5010764;28;20022;-67
2023/01/03 08:41:17;;;;;;;6.88;2.17;;;;;;;;;;5000714;28;20088;-67
2023/01/03 08:43:46;;;;;;;6.00;2.22;;;;;;;;;;5004087;28;20043;-67
2023/01/03 08:46:14;;;;;;;7.93;2.10;;;;;;;;;;4995292;28;20054;-67
2023/01/03 08:48:42;;;;;;;5.50;2.03;;;;;;;;;;5008527;28;20050;-67
2023/01/03 08:51:07;;;;;;;4.70;1.70;;;;;;;;;;4998996;28;20064;-68
2023/01/03 08:53:32;;;;;;;5.70;1.73;;;;;;;;;;5002194;28;20062;-68
2023/01/03 08:55:59;;;;;;;6.30;2.30;;;;;;;;;;4994287;28;20465;-69
2023/01/03 08:58:24;;;;;;;4.90;1.73;;;;;;;;;;5009658;28;20088;-69
2023/01/03 09:00:49;;;;;;;8.40;2.08;;;;;;;;;;4997595;28;20105;-69
2023/01/03 09:03:15;;;;;;;7.47;2.10;;;;;;;;;;5007639;28;20539;-68
2023/01/03 09:05:40;;;;;;;5.13;2.05;;;;;;;;;;4993287;28;20443;-68
2023/01/03 09:08:06;;;;;;;4.90;2.03;;;;;;;;;;4993951;28;20030;-68
2023/01/03 09:10:31;;;;;;;4.22;2.17;;;;;;;;;;5010201;28;20025;-69
2023/01/03 09:12:57;;;;;;;7.10;2.17;;;;;;;;;;4997149;28;20419;-68
2023/01/03 09:15:22;;;;;;;7.15;2.58;;;;;;;;;;5001335;28;20056;-69
2023/01/03 09:17:48;;;;;;;6.00;2.60;;;;;;;;;;4993276;28;20060;-68
2023/01/03 09:20:16;;;;;;;7.38;2.58;;;;;;;;;;4993621;28;20112;-69
2023/01/03 09:22:41;;;;;;;10.23;2.40;;;;;;;;;;4995268;28;20030;-68
2023/01/03 09:25:08;;;;;;;6.72;2.88;;;;;;;;;;5008087;28;20092;-69
2023/01/03 09:27:33;;;;;;;8.18;2.75;;;;;;;;;;4993467;28;20034;-68
2023/01/03 09:29:59;;;;;;;5.20;2.10;;;;;;;;;;5008024;28;20052;-68
2023/01/03 09:32:24;;;;;;;9.75;2.38;;;;;;;;;;5013415;28;20026;-68
2023/01/03 09:34:50;;;;;;;5.25;2.35;;;;;;;;;;5013052;28;20113;-69
2023/01/03 09:37:15;;;;;;;6.22;2.40;;;;;;;;;;5010782;28;20018;-68
2023/01/03 09:39:41;;;;;;;6.40;2.10;;;;;;;;;;5013334;28;20456;-69
2023/01/03 09:44:57;;;;;;;;;;;;;;;;;;5013641;28;20100;-68
2023/01/03 09:47:24;;;;;;;10.57;2.30;;;;;;;;;;5013015;28;19917;-67
2023/01/03 09:49:52;;;;;;;5.03;2.15;;;;;;;;;;5012915;28;20053;-67
2023/01/03 10:04:35;;;;;;;3.10;1.45;;;;;;;;;;4971846;28;20082;-68
2023/01/03 10:07:24;;;;;;;4.25;1.88;;;;;;;;;;4971815;28;20034;-68
2023/01/03 10:10:13;;;;;;;7.35;2.00;;;;;;;;;;4971615;28;20050;-68
2023/01/03 10:13:01;;;;;;;7.45;2.20;;;;;;;;;;4971827;28;20027;-68
2023/01/03 10:15:46;;;;;;;3.35;2.17;;;;;;;;;;4971917;28;20043;-69
2023/01/03 10:18:20;;;;;;;4.85;2.08;;;;;;;;;;4971559;28;20039;-68
2023/01/03 10:21:15;;;;;;;8.05;2.55;;;;;;;;;;4971913;28;20085;-69
2023/01/03 10:23:42;;;;;;;6.05;1.83;;;;;;;;;;4965379;28;20039;-69
2023/01/03 10:26:10;;;;;;;4.20;2.00;;;;;;;;;;4971685;28;20037;-69
2023/01/03 10:28:43;;;;;;;3.40;2.05;;;;;;;;;;4960034;28;20036;-68
2023/01/03 10:31:11;;;;;;;4.78;2.17;;;;;;;;;;4952078;29;20035;-69
2023/01/03 10:33:47;;;;;;;25.27;3.88;;;;;;;;;;4952163;29;20035;-68
2023/01/03 10:36:18;;;;;;;4.28;1.83;;;;;;;;;;4973782;28;20509;-69
2023/01/03 10:38:44;;;;;;;11.13;2.60;;;;;;;;;;4973679;28;20047;-68
2023/01/03 10:41:41;;;;;;;4.72;1.92;;;;;;;;;;4973467;28;20030;-69
2023/01/03 10:44:21;;;;;;;6.85;2.03;;;;;;;;;;4973141;28;20105;-69
2023/01/03 10:46:54;;;;;;;4.32;2.35;;;;;;;;;;4973538;28;20421;-69
2023/01/03 10:49:23;;;;;;;8.23;2.25;;;;;;;;;;4977117;28;20032;-68
2023/01/03 10:51:57;;;;;;;8.18;2.00;;;;;;;;;;4977507;28;20026;-69
2023/01/03 10:54:28;;;;;;;6.93;2.30;;;;;;;;;;4977392;28;20105;-68
2023/01/03 10:56:54;;;;;;;6.45;1.90;;;;;;;;;;4977298;28;20039;-68
2023/01/03 10:59:24;;;;;;;6.07;1.65;;;;;;;;;;4984453;28;20052;-69
2023/01/03 11:02:11;;;;;;;6.90;1.60;;;;;;;;;;4996501;28;20030;-68
2023/01/03 11:04:38;;;;;;;6.22;2.17;;;;;;;;;;4996180;28;20498;-68
2023/01/03 11:07:15;;;;;;;7.10;1.92;;;;;;;;;;4996044;28;20050;-69
2023/01/03 11:09:43;;;;;;;6.85;1.88;;;;;;;;;;4996591;28;20022;-69
2023/01/03 11:12:16;;;;;;;4.30;1.70;;;;;;;;;;4996630;28;20157;-68
2023/01/03 11:14:54;;;;;;;6.93;2.05;;;;;;;;;;4996486;28;20030;-69
2023/01/03 11:17:21;;;;;;;5.47;2.42;;;;;;;;;;4996264;28;20040;-68
2023/01/03 11:19:48;;;;;;;7.00;2.50;;;;;;;;;;4996239;28;20023;-69
2023/01/03 11:22:13;;;;;;;6.07;2.10;;;;;;;;;;4996334;28;20037;-69
2023/01/03 11:25:21;;;;;;;6.15;2.22;;;;;;;;;;4996224;28;20384;-69
2023/01/03 11:28:10;;;;;;;5.13;1.67;;;;;;;;;;5006861;28;20435;-69
2023/01/03 11:30:51;;;;;;;6.37;2.10;;;;;;;;;;5013324;28;20549;-69
2023/01/03 11:33:33;;;;;;;3.03;1.77;;;;;;;;;;5003254;28;20251;-69
2023/01/03 11:36:13;;;;;;;13.20;2.78;;;;;;;;;;5002433;28;20456;-69
2023/01/03 11:39:02;;;;;;;;;;;;;;;;;;5012322;28;20026;-69
2023/01/03 11:42:09;;;;;;;4.72;1.90;;;;;;;;;;5004532;28;20009;-70
2023/01/03 11:45:04;;;;;;;6.00;1.73;;;;;;;;;;4998824;28;20484;-69
2023/01/03 11:47:57;;;;;;;6.55;1.95;;;;;;;;;;4991949;28;20034;-69
2023/01/03 11:50:28;;;;;;;8.52;1.80;;;;;;;;;;4991578;28;20022;-69
2023/01/03 11:53:22;;;;;;;5.45;1.60;;;;;;;;;;4993715;28;20030;-69
2023/01/03 11:56:18;;;;;;;6.75;1.63;;;;;;;;;;4988934;28;20018;-69
2023/01/03 11:59:17;;;;;;;6.55;1.90;;;;;;;;;;4983782;28;20038;-69
2023/01/03 12:02:01;;;;;;;6.28;2.28;;;;;;;;;;4976178;28;20038;-69
2023/01/03 12:04:59;;;;;;;13.18;2.58;;;;;;;;;;4975959;28;20038;-69
2023/01/03 12:08:04;;;;;;;5.90;2.00;;;;;;;;;;4976033;28;20500;-69
2023/01/03 12:10:46;;;;;;;2.70;1.25;;;;;;;;;;4935377;29;20048;-69
2023/01/03 12:13:51;;;;;;;6.60;1.85;;;;;;;;;;4935407;29;20032;-69
2023/01/03 12:16:34;;;;;;;8.18;1.73;;;;;;;;;;4935459;29;20132;-69
2023/01/03 12:19:14;;;;;;;6.93;1.55;;;;;;;;;;4935330;29;20159;-70
2023/01/03 12:21:43;;;;;;;8.68;2.35;;;;;;;;;;4935269;29;20147;-69
2023/01/03 12:24:18;;;;;;;6.05;2.25;;;;;;;;;;4960603;28;20451;-69
2023/01/03 12:26:51;;;;;;;8.98;1.60;;;;;;;;;;4973299;28;20069;-69
2023/01/03 12:29:22;;;;;;;10.80;1.85;;;;;;;;;;4973159;28;20409;-69
2023/01/03 12:32:05;;;;;;;8.75;2.22;;;;;;;;;;4973242;28;20046;-68
2023/01/03 12:34:50;;;;;;;5.85;1.50;;;;;;;;;;4973392;28;20074;-69
2023/01/03 12:37:23;;;;;;;6.25;1.95;;;;;;;;;;4973445;28;20644;-69
2023/01/03 12:39:55;;;;;;;5.88;1.55;;;;;;;;;;4973375;28;20138;-69
2023/01/03 12:42:45;;;;;;;5.20;1.40;;;;;;;;;;4973040;28;20042;-68
2023/01/03 12:45:31;;;;;;;6.45;1.70;;;;;;;;;;4973216;28;20504;-69
2023/01/03 12:48:12;;;;;;;11.75;2.00;;;;;;;;;;5008944;28;20482;-68
2023/01/03 12:50:48;;;;;;;6.97;1.65;;;;;;;;;;5014021;28;20029;-68
2023/01/03 12:53:38;;;;;;;8.10;2.08;;;;;;;;;;5013959;28;20037;-68
2023/01/03 12:56:31;;;;;;;6.85;2.28;;;;;;;;;;5014199;28;20026;-68
2023/01/03 12:59:16;;;;;;;5.10;1.85;;;;;;;;;;5013604;28;20105;-68
2023/01/03 13:01:52;;;;;;;12.50;2.20;;;;;;;;;;4987825;28;20031;-69
2023/01/03 13:04:32;;;;;;;4.72;1.83;;;;;;;;;;4989166;28;20022;-68
2023/01/03 13:07:00;;;;;;;5.88;2.08;;;;;;;;;;4994224;28;20031;-69
2023/01/03 13:09:35;;;;;;;3.63;1.42;;;;;;;;;;4993783;28;20057;-67
2023/01/03 13:12:07;;;;;;;6.50;1.52;;;;;;;;;;4993995;28;20058;-68
2023/01/03 13:14:53;;;;;;;5.68;2.50;;;;;;;;;;4994130;28;20022;-68
2023/01/03 13:17:26;;;;;;;7.22;2.00;;;;;;;;;;4994161;28;20148;-68
2023/01/03 13:19:55;;;;;;;5.32;1.70;;;;;;;;;;4994078;28;20075;-69
2023/01/03 13:22:20;;;;;;;4.38;2.13;;;;;;;;;;4994210;28;20030;-69
2023/01/03 13:24:50;;;;;;;9.55;2.25;;;;;;;;;;4993816;28;20027;-69
2023/01/03 13:29:44;;;;;;;6.15;1.20;;;;;;;;;;5005906;28;20040;-68
2023/01/03 13:32:18;;;;;;;4.10;1.40;;;;;;;;;;5013534;28;20030;-68
2023/01/03 13:34:58;;;;;;;8.93;1.58;;;;;;;;;;5013433;28;20030;-69
2023/01/03 13:37:47;;;;;;;6.85;1.60;;;;;;;;;;5013579;28;20460;-68
2023/01/03 13:40:43;;;;;;;9.38;1.90;;;;;;;;;;5013048;28;20052;-67
2023/01/03 13:43:18;;;;;;;8.48;1.80;;;;;;;;;;5012196;28;20144;-67
2023/01/03 13:45:43;;;;;;;9.60;2.10;;;;;;;;;;5013222;28;20077;-67
2023/01/03 13:48:23;;;;;;;11.65;4.55;;;;;;;;;;5013164;28;20500;-69
2023/01/03 13:51:04;;;;;;;10.38;4.22;;;;;;;;;;5013117;28;20033;-68
2023/01/03 13:53:36;;;;;;;8.63;2.00;;;;;;;;;;5013101;28;20076;-68
2023/01/03 13:56:13;;;;;;;9.45;1.67;;;;;;;;;;5013003;28;20029;-68
2023/01/03 13:58:45;;;;;;;13.75;4.05;;;;;;;;;;5012999;28;20060;-68
2023/01/03 14:01:31;;;;;;;13.32;4.10;;;;;;;;;;5011657;28;20379;-67
2023/01/03 14:04:30;;;;;;;6.05;2.00;;;;;;;;;;4975645;28;20066;-67
2023/01/03 14:07:01;;;;;;;5.85;1.98;;;;;;;;;;4986903;28;20512;-67
2023/01/03 14:10:05;;;;;;;6.32;2.45;;;;;;;;;;4990852;28;20038;-68
2023/01/03 14:12:30;;;;;;;5.85;1.85;;;;;;;;;;4940257;29;20539;-67
2023/01/03 14:14:57;;;;;;;4.75;2.22;;;;;;;;;;4933269;29;20051;-67
2023/01/03 14:17:31;;;;;;;13.18;2.10;;;;;;;;;;4932887;29;20047;-69
2023/01/03 14:20:06;;;;;;;12.07;2.00;;;;;;;;;;4932560;29;20098;-69
2023/01/03 14:22:39;;;;;;;6.30;1.45;;;;;;;;;;4932037;29;20067;-68
2023/01/03 14:25:06;;;;;;;6.43;1.60;;;;;;;;;;4932985;29;20035;-69
2023/01/03 14:27:38;;;;;;;5.15;1.38;;;;;;;;;;4932929;29;20047;-68
2023/01/03 14:30:18;;;;;;;6.15;1.52;;;;;;;;;;4947288;29;20067;-68
2023/01/03 14:32:43;;;;;;;5.13;1.50;;;;;;;;;;4946678;29;20091;-69
2023/01/03 14:35:35;;;;;;;4.95;1.38;;;;;;;;;;4932856;29;20032;-69
2023/01/03 14:38:02;;;;;;;4.25;1.50;;;;;;;;;;4932800;29;20024;-69
2023/01/03 14:40:27;;;;;;;4.05;1.60;;;;;;;;;;4937893;29;20477;-69
2023/01/03 14:42:53;;;;;;;7.18;1.85;;;;;;;;;;4951967;29;20105;-70
2023/01/03 14:45:19;;;;;;;9.02;2.85;;;;;;;;;;4951831;29;20090;-70
2023/01/03 14:47:45;;;;;;;8.93;2.58;;;;;;;;;;4966803;28;20031;-69
2023/01/03 14:50:18;;;;;;;10.25;3.13;;;;;;;;;;5012499;28;20026;-69
2023/01/03 14:52:46;;;;;;;7.57;3.20;;;;;;;;;;5012468;28;20041;-69
2023/01/03 14:55:15;;;;;;;16.35;5.60;;;;;;;;;;5011996;28;20049;-71
2023/01/03 14:57:43;;;;;;;14.63;5.85;;;;;;;;;;5012402;28;20033;-71
2023/01/03 15:00:19;;;;;;;19.58;5.70;;;;;;;;;;5012191;28;20026;-67
2023/01/03 15:02:45;;;;;;;22.58;5.80;;;;;;;;;;5005807;28;20042;-68
2023/01/03 15:05:39;;;;;;;11.80;4.30;;;;;;;;;;4978386;28;20042;-69
2023/01/03 15:08:14;;;;;;;9.00;3.33;;;;;;;;;;4971349;28;20149;-70
2023/01/03 15:11:02;;;;;;;7.32;3.03;;;;;;;;;;4971920;28;20121;-69
2023/01/03 15:13:46;;;;;;;6.40;2.70;;;;;;;;;;4972981;28;20034;-69
2023/01/03 15:16:32;;;;;;;12.35;4.03;;;;;;;;;;4972468;28;20057;-69
2023/01/03 15:19:19;;;;;;;16.00;4.45;;;;;;;;;;4971575;28;20145;-67
2023/01/03 15:21:45;;;;;;;13.02;4.40;;;;;;;;;;4971381;28;20444;-68
2023/01/03 15:24:22;;;;;;;11.98;4.43;;;;;;;;;;4971098;28;20354;-69
2023/01/03 15:26:52;;;;;;;16.00;4.65;;;;;;;;;;4971098;28;20035;-69
2023/01/03 15:29:27;;;;;;;12.35;4.47;;;;;;;;;;4979768;28;20077;-67
2023/01/03 15:31:52;;;;;;;14.80;4.50;;;;;;;;;;4990612;28;20057;-68
2023/01/03 15:34:39;;;;;;;14.00;4.63;;;;;;;;;;4993014;28;20472;-69
2023/01/03 15:37:11;;;;;;;13.77;4.97;;;;;;;;;;4994526;28;20030;-70
2023/01/03 15:39:44;;;;;;;15.35;5.18;;;;;;;;;;4996293;28;20026;-68
2023/01/03 15:44:56;;;;;;;10.27;4.07;;;;;;;;;;4996176;28;20040;-67
2023/01/03 15:47:27;;;;;;;8.68;3.85;;;;;;;;;;4995840;28;20113;-68
2023/01/03 15:49:58;;;;;;;16.30;5.35;;;;;;;;;;4995922;28;20116;-70
2023/01/03 15:52:23;;;;;;;13.27;4.70;;;;;;;;;;4994506;28;20026;-68
2023/01/03 15:54:48;;;;;;;12.98;4.63;;;;;;;;;;4996072;28;20044;-70
2023/01/03 15:57:20;;;;;;;9.13;3.65;;;;;;;;;;4995726;28;20026;-68
2023/01/03 15:59:53;;;;;;;10.73;4.63;;;;;;;;;;4995778;28;20026;-70
2023/01/03 16:02:20;;;;;;;10.95;4.45;;;;;;;;;;4995861;28;20491;-70
2023/01/03 16:04:47;;;;;;;10.98;4.97;;;;;;;;;;4995734;28;20113;-71
2023/01/03 16:07:13;;;;;;;13.60;4.90;;;;;;;;;;4995160;28;20031;-70
2023/01/03 16:09:39;;;;;;;15.65;5.93;;;;;;;;;;4995676;28;20431;-70
2023/01/03 16:12:11;;;;;;;9.82;3.33;;;;;;;;;;4995678;28;20071;-67
2023/01/03 16:14:39;;;;;;;8.55;4.28;;;;;;;;;;4995536;28;20114;-69
2023/01/03 16:17:07;;;;;;;9.70;3.83;;;;;;;;;;4995302;28;20026;-70